Terminal Aerodrome Forecast
Issued by NWS

Home | Current Version | Previous Version | Text Only | Print | Product List | Glossary On
Versions: 1 2 3 4 5 6 7 8 9 10 11 12 13 14
579
FTAK31 PAJN 261735
TAFAKT
TAF
PAKT 261735Z 2618/2718 18007KT P6SM VCSH BKN050 OVC100
     FM262000 16010KT P6SM SCT050 OVC080
     FM270200 15007KT P6SM -RA SCT025 OVC045
     FM270600 15009KT 5SM -RA BR BKN025 OVC035
     FM271200 14012G20KT 4SM -RA BR BKN015 OVC022 WS020/16035KT
      AMD LTD TO CLD VIS AND WIND 2706/2715=

USA.gov is the U.S. government's official web portal to all federal, state and local government web resources and services.